sensor_id;sensor_type;location;lat;lon;timestamp;P1;P2;P0
80555;PMS5003;69889;55.040;73.076;2023-12-20T00:00:57;18.75;15.25;10.50
80555;PMS5003;69889;55.040;73.076;2023-12-20T00:03:23;20.50;16.75;10.00
80555;PMS5003;69889;55.040;73.076;2023-12-20T00:05:50;20.00;16.75;9.25
80555;PMS5003;69889;55.040;73.076;2023-12-20T00:08:16;21.50;18.25;10.50
80555;PMS5003;69889;55.040;73.076;2023-12-20T00:10:43;24.25;20.75;12.00
80555;PMS5003;69889;55.040;73.076;2023-12-20T00:13:10;21.25;18.50;10.50
80555;PMS5003;69889;55.040;73.076;2023-12-20T00:15:36;23.25;20.50;12.75
80555;PMS5003;69889;55.040;73.076;2023-12-20T00:18:02;24.00;20.00;10.25
80555;PMS5003;69889;55.040;73.076;2023-12-20T00:20:29;27.75;22.25;13.00
80555;PMS5003;69889;55.040;73.076;2023-12-20T00:22:56;29.50;23.00;12.75
80555;PMS5003;69889;55.040;73.076;2023-12-20T00:25:24;30.25;23.00;12.00
80555;PMS5003;69889;55.040;73.076;2023-12-20T00:27:50;35.75;26.25;14.00
80555;PMS5003;69889;55.040;73.076;2023-12-20T00:30:16;33.25;25.75;15.50
80555;PMS5003;69889;55.040;73.076;2023-12-20T00:32:42;33.00;25.00;14.50
80555;PMS5003;69889;55.040;73.076;2023-12-20T00:35:13;31.75;25.50;15.25
80555;PMS5003;69889;55.040;73.076;2023-12-20T00:37:39;29.00;23.50;14.00
80555;PMS5003;69889;55.040;73.076;2023-12-20T00:40:05;30.50;24.50;14.00
80555;PMS5003;69889;55.040;73.076;2023-12-20T00:42:32;28.50;23.50;13.50
80555;PMS5003;69889;55.040;73.076;2023-12-20T00:44:59;34.75;27.50;15.75
80555;PMS5003;69889;55.040;73.076;2023-12-20T00:47:25;29.25;24.25;15.00
80555;PMS5003;69889;55.040;73.076;2023-12-20T00:49:52;33.50;26.00;15.00
80555;PMS5003;69889;55.040;73.076;2023-12-20T00:52:18;33.50;25.50;14.00
80555;PMS5003;69889;55.040;73.076;2023-12-20T00:54:45;41.00;30.00;15.00
80555;PMS5003;69889;55.040;73.076;2023-12-20T00:57:11;38.25;29.25;17.00
80555;PMS5003;69889;55.040;73.076;2023-12-20T00:59:38;35.00;28.00;16.50
80555;PMS5003;69889;55.040;73.076;2023-12-20T01:02:04;37.75;28.50;18.00
80555;PMS5003;69889;55.040;73.076;2023-12-20T01:04:30;38.75;30.00;17.75
80555;PMS5003;69889;55.040;73.076;2023-12-20T01:06:56;36.50;27.75;15.75
80555;PMS5003;69889;55.040;73.076;2023-12-20T01:09:23;38.75;31.00;18.00
80555;PMS5003;69889;55.040;73.076;2023-12-20T01:11:52;40.00;30.25;17.00
80555;PMS5003;69889;55.040;73.076;2023-12-20T01:14:19;38.50;29.50;16.00
80555;PMS5003;69889;55.040;73.076;2023-12-20T01:16:45;35.50;27.50;15.75
80555;PMS5003;69889;55.040;73.076;2023-12-20T01:19:12;40.25;31.25;17.50
80555;PMS5003;69889;55.040;73.076;2023-12-20T01:21:39;38.00;29.00;17.00
80555;PMS5003;69889;55.040;73.076;2023-12-20T01:24:05;35.50;28.00;16.00
80555;PMS5003;69889;55.040;73.076;2023-12-20T01:26:32;41.00;30.25;17.00
80555;PMS5003;69889;55.040;73.076;2023-12-20T01:28:58;34.25;27.00;15.25
80555;PMS5003;69889;55.040;73.076;2023-12-20T01:31:24;38.25;29.75;16.75
80555;PMS5003;69889;55.040;73.076;2023-12-20T01:33:51;40.75;31.00;18.00
80555;PMS5003;69889;55.040;73.076;2023-12-20T01:36:18;42.25;32.00;18.00
80555;PMS5003;69889;55.040;73.076;2023-12-20T01:38:44;42.25;31.50;19.00
80555;PMS5003;69889;55.040;73.076;2023-12-20T01:41:11;46.50;33.50;18.00
80555;PMS5003;69889;55.040;73.076;2023-12-20T01:43:37;43.50;33.50;19.00
80555;PMS5003;69889;55.040;73.076;2023-12-20T01:46:03;42.00;32.00;19.50
80555;PMS5003;69889;55.040;73.076;2023-12-20T01:48:30;44.25;34.50;19.50
80555;PMS5003;69889;55.040;73.076;2023-12-20T01:50:59;45.00;33.00;18.75
80555;PMS5003;69889;55.040;73.076;2023-12-20T01:53:26;42.50;32.25;17.25
80555;PMS5003;69889;55.040;73.076;2023-12-20T01:55:54;44.25;35.00;20.00
80555;PMS5003;69889;55.040;73.076;2023-12-20T01:58:20;45.25;33.75;18.00
80555;PMS5003;69889;55.040;73.076;2023-12-20T02:00:47;41.25;32.00;18.25
80555;PMS5003;69889;55.040;73.076;2023-12-20T02:03:14;44.25;34.00;17.50
80555;PMS5003;69889;55.040;73.076;2023-12-20T02:05:40;42.50;32.75;18.75
80555;PMS5003;69889;55.040;73.076;2023-12-20T02:08:07;45.75;35.25;19.50
80555;PMS5003;69889;55.040;73.076;2023-12-20T02:10:34;42.50;31.75;18.50
80555;PMS5003;69889;55.040;73.076;2023-12-20T02:13:00;42.50;32.75;18.00
80555;PMS5003;69889;55.040;73.076;2023-12-20T02:15:26;40.25;31.50;19.25
80555;PMS5003;69889;55.040;73.076;2023-12-20T02:17:53;44.50;34.00;20.25
80555;PMS5003;69889;55.040;73.076;2023-12-20T02:20:19;42.50;33.00;18.75
80555;PMS5003;69889;55.040;73.076;2023-12-20T02:22:46;40.00;31.75;19.00
80555;PMS5003;69889;55.040;73.076;2023-12-20T02:25:12;40.00;31.75;17.50
80555;PMS5003;69889;55.040;73.076;2023-12-20T02:27:39;40.25;30.50;18.25
80555;PMS5003;69889;55.040;73.076;2023-12-20T02:30:06;44.25;34.00;19.50
80555;PMS5003;69889;55.040;73.076;2023-12-20T02:32:32;37.00;29.25;17.50
80555;PMS5003;69889;55.040;73.076;2023-12-20T02:34:59;36.50;28.75;16.75
80555;PMS5003;69889;55.040;73.076;2023-12-20T02:37:26;39.00;30.50;16.75
80555;PMS5003;69889;55.040;73.076;2023-12-20T02:39:52;41.00;31.50;18.50
80555;PMS5003;69889;55.040;73.076;2023-12-20T02:42:18;39.50;30.00;17.75
80555;PMS5003;69889;55.040;73.076;2023-12-20T02:44:44;37.25;28.50;17.50
80555;PMS5003;69889;55.040;73.076;2023-12-20T02:47:11;41.00;31.75;17.50
80555;PMS5003;69889;55.040;73.076;2023-12-20T02:49:37;41.00;31.25;18.50
80555;PMS5003;69889;55.040;73.076;2023-12-20T02:52:04;39.75;31.75;18.00
80555;PMS5003;69889;55.040;73.076;2023-12-20T02:54:30;41.75;31.25;18.75
80555;PMS5003;69889;55.040;73.076;2023-12-20T02:56:56;40.00;32.00;18.75
80555;PMS5003;69889;55.040;73.076;2023-12-20T02:59:22;38.25;29.50;17.75
80555;PMS5003;69889;55.040;73.076;2023-12-20T03:01:49;35.25;29.00;17.00
80555;PMS5003;69889;55.040;73.076;2023-12-20T03:04:15;36.00;29.00;18.00
80555;PMS5003;69889;55.040;73.076;2023-12-20T03:06:42;38.75;30.50;18.00
80555;PMS5003;69889;55.040;73.076;2023-12-20T03:09:08;40.00;32.50;19.75
80555;PMS5003;69889;55.040;73.076;2023-12-20T03:11:34;41.75;33.25;20.50
80555;PMS5003;69889;55.040;73.076;2023-12-20T03:14:00;41.00;31.75;19.00
80555;PMS5003;69889;55.040;73.076;2023-12-20T03:16:27;41.50;32.75;20.75
80555;PMS5003;69889;55.040;73.076;2023-12-20T03:18:53;39.25;31.50;19.25
80555;PMS5003;69889;55.040;73.076;2023-12-20T03:21:19;38.75;30.75;20.00
80555;PMS5003;69889;55.040;73.076;2023-12-20T03:23:46;40.25;33.25;20.00
80555;PMS5003;69889;55.040;73.076;2023-12-20T03:26:12;41.50;33.25;20.50
80555;PMS5003;69889;55.040;73.076;2023-12-20T03:28:39;42.25;34.50;21.50
80555;PMS5003;69889;55.040;73.076;2023-12-20T03:31:05;42.50;33.50;19.75
80555;PMS5003;69889;55.040;73.076;2023-12-20T03:33:31;40.00;31.75;19.75
80555;PMS5003;69889;55.040;73.076;2023-12-20T03:35:58;44.50;33.50;19.50
80555;PMS5003;69889;55.040;73.076;2023-12-20T03:38:24;40.50;32.75;20.50
80555;PMS5003;69889;55.040;73.076;2023-12-20T03:40:50;38.00;30.50;19.00
80555;PMS5003;69889;55.040;73.076;2023-12-20T03:43:17;39.25;32.00;19.75
80555;PMS5003;69889;55.040;73.076;2023-12-20T03:45:43;37.25;29.75;17.50
80555;PMS5003;69889;55.040;73.076;2023-12-20T03:48:09;34.50;29.00;18.50
80555;PMS5003;69889;55.040;73.076;2023-12-20T03:50:36;35.25;28.00;17.50
80555;PMS5003;69889;55.040;73.076;2023-12-20T03:53:03;32.50;26.75;16.75
80555;PMS5003;69889;55.040;73.076;2023-12-20T03:55:29;32.50;26.50;16.75
80555;PMS5003;69889;55.040;73.076;2023-12-20T03:57:56;34.50;27.50;16.50
80555;PMS5003;69889;55.040;73.076;2023-12-20T04:00:22;33.00;27.00;16.00
80555;PMS5003;69889;55.040;73.076;2023-12-20T04:02:48;32.00;26.00;16.00
80555;PMS5003;69889;55.040;73.076;2023-12-20T04:05:15;29.50;25.25;15.75
80555;PMS5003;69889;55.040;73.076;2023-12-20T04:07:41;32.00;26.25;17.00
80555;PMS5003;69889;55.040;73.076;2023-12-20T04:10:07;30.75;25.00;15.00
80555;PMS5003;69889;55.040;73.076;2023-12-20T04:12:34;24.50;21.50;15.00
80555;PMS5003;69889;55.040;73.076;2023-12-20T04:15:00;31.25;25.25;15.75
80555;PMS5003;69889;55.040;73.076;2023-12-20T04:17:27;27.75;23.00;14.00
80555;PMS5003;69889;55.040;73.076;2023-12-20T04:19:53;26.25;23.00;14.50
80555;PMS5003;69889;55.040;73.076;2023-12-20T04:22:19;24.25;21.25;14.00
80555;PMS5003;69889;55.040;73.076;2023-12-20T04:24:46;26.75;22.50;13.00
80555;PMS5003;69889;55.040;73.076;2023-12-20T04:27:12;26.75;23.00;13.75
80555;PMS5003;69889;55.040;73.076;2023-12-20T04:29:38;21.50;18.75;12.25
80555;PMS5003;69889;55.040;73.076;2023-12-20T04:32:04;24.75;21.00;14.00
80555;PMS5003;69889;55.040;73.076;2023-12-20T04:34:31;24.00;19.25;12.00
80555;PMS5003;69889;55.040;73.076;2023-12-20T04:36:57;25.00;21.00;14.00
80555;PMS5003;69889;55.040;73.076;2023-12-20T04:39:24;23.00;20.00;13.00
80555;PMS5003;69889;55.040;73.076;2023-12-20T04:41:50;23.25;20.00;12.75
80555;PMS5003;69889;55.040;73.076;2023-12-20T04:44:16;26.00;22.00;13.50
80555;PMS5003;69889;55.040;73.076;2023-12-20T04:46:43;25.25;21.25;14.00
80555;PMS5003;69889;55.040;73.076;2023-12-20T04:49:09;23.75;21.00;13.50
80555;PMS5003;69889;55.040;73.076;2023-12-20T04:51:35;24.75;21.75;14.00
80555;PMS5003;69889;55.040;73.076;2023-12-20T04:54:02;25.00;21.00;13.25
80555;PMS5003;69889;55.040;73.076;2023-12-20T04:56:28;23.25;20.50;12.75
80555;PMS5003;69889;55.040;73.076;2023-12-20T04:58:55;27.00;22.00;14.00
80555;PMS5003;69889;55.040;73.076;2023-12-20T05:01:25;29.75;24.00;14.00
80555;PMS5003;69889;55.040;73.076;2023-12-20T05:03:52;26.50;23.50;13.75
80555;PMS5003;69889;55.040;73.076;2023-12-20T05:06:18;28.00;23.25;14.50
80555;PMS5003;69889;55.040;73.076;2023-12-20T05:08:44;27.00;22.00;14.25
80555;PMS5003;69889;55.040;73.076;2023-12-20T05:11:11;26.00;22.50;13.25
80555;PMS5003;69889;55.040;73.076;2023-12-20T05:13:40;27.25;23.25;15.00
80555;PMS5003;69889;55.040;73.076;2023-12-20T05:16:06;28.50;23.50;15.25
80555;PMS5003;69889;55.040;73.076;2023-12-20T05:18:32;27.25;23.75;15.75
80555;PMS5003;69889;55.040;73.076;2023-12-20T05:20:58;30.00;24.00;14.00
80555;PMS5003;69889;55.040;73.076;2023-12-20T05:23:25;27.00;24.00;16.00
80555;PMS5003;69889;55.040;73.076;2023-12-20T05:25:51;29.25;24.75;15.50
80555;PMS5003;69889;55.040;73.076;2023-12-20T05:28:17;31.50;26.25;17.25
80555;PMS5003;69889;55.040;73.076;2023-12-20T05:30:44;31.50;24.75;15.00
80555;PMS5003;69889;55.040;73.076;2023-12-20T05:33:10;27.50;23.00;15.00
80555;PMS5003;69889;55.040;73.076;2023-12-20T05:35:36;30.50;25.00;15.75
80555;PMS5003;69889;55.040;73.076;2023-12-20T05:38:02;25.00;21.75;14.25
80555;PMS5003;69889;55.040;73.076;2023-12-20T05:40:29;29.50;24.00;15.50
80555;PMS5003;69889;55.040;73.076;2023-12-20T05:42:55;30.00;24.00;15.00
80555;PMS5003;69889;55.040;73.076;2023-12-20T05:45:21;31.25;24.50;15.75
80555;PMS5003;69889;55.040;73.076;2023-12-20T05:47:48;29.25;25.50;16.00
80555;PMS5003;69889;55.040;73.076;2023-12-20T05:50:14;28.00;23.00;14.50
80555;PMS5003;69889;55.040;73.076;2023-12-20T05:52:40;29.00;24.00;16.25
80555;PMS5003;69889;55.040;73.076;2023-12-20T05:55:07;32.00;26.00;14.75
80555;PMS5003;69889;55.040;73.076;2023-12-20T05:57:34;28.25;23.75;15.25
80555;PMS5003;69889;55.040;73.076;2023-12-20T06:00:00;29.75;24.75;15.00
80555;PMS5003;69889;55.040;73.076;2023-12-20T06:02:26;30.00;25.00;17.00
80555;PMS5003;69889;55.040;73.076;2023-12-20T06:04:53;31.00;24.50;16.00
80555;PMS5003;69889;55.040;73.076;2023-12-20T06:07:19;29.00;24.00;15.00
80555;PMS5003;69889;55.040;73.076;2023-12-20T06:09:46;30.00;24.75;16.00
80555;PMS5003;69889;55.040;73.076;2023-12-20T06:12:13;31.25;24.75;16.25
80555;PMS5003;69889;55.040;73.076;2023-12-20T06:14:39;32.00;25.00;16.00
80555;PMS5003;69889;55.040;73.076;2023-12-20T06:17:05;31.00;26.00;16.00
80555;PMS5003;69889;55.040;73.076;2023-12-20T06:19:31;33.00;25.25;16.25
80555;PMS5003;69889;55.040;73.076;2023-12-20T06:21:58;30.75;25.50;15.50
80555;PMS5003;69889;55.040;73.076;2023-12-20T06:24:24;32.25;25.75;16.75
80555;PMS5003;69889;55.040;73.076;2023-12-20T06:26:54;32.50;27.00;17.00
80555;PMS5003;69889;55.040;73.076;2023-12-20T06:29:21;29.25;24.00;16.25
80555;PMS5003;69889;55.040;73.076;2023-12-20T06:31:47;35.25;27.00;16.00
80555;PMS5003;69889;55.040;73.076;2023-12-20T06:34:13;31.00;25.50;16.50
80555;PMS5003;69889;55.040;73.076;2023-12-20T06:36:40;31.75;25.00;16.00
80555;PMS5003;69889;55.040;73.076;2023-12-20T06:39:06;31.50;26.00;16.75
80555;PMS5003;69889;55.040;73.076;2023-12-20T06:41:33;31.00;26.00;16.50
80555;PMS5003;69889;55.040;73.076;2023-12-20T06:43:59;29.00;24.00;15.00
80555;PMS5003;69889;55.040;73.076;2023-12-20T06:46:25;28.00;24.00;16.00
80555;PMS5003;69889;55.040;73.076;2023-12-20T06:48:52;31.75;25.50;15.00
80555;PMS5003;69889;55.040;73.076;2023-12-20T06:51:18;26.75;23.00;15.00
80555;PMS5003;69889;55.040;73.076;2023-12-20T06:53:46;30.50;24.75;15.75
80555;PMS5003;69889;55.040;73.076;2023-12-20T06:56:12;31.25;26.50;17.00
80555;PMS5003;69889;55.040;73.076;2023-12-20T06:58:38;33.00;26.25;16.00
80555;PMS5003;69889;55.040;73.076;2023-12-20T07:01:05;32.00;26.50;16.75
80555;PMS5003;69889;55.040;73.076;2023-12-20T07:03:31;30.50;25.25;15.75
80555;PMS5003;69889;55.040;73.076;2023-12-20T07:05:58;28.25;24.25;16.00
80555;PMS5003;69889;55.040;73.076;2023-12-20T07:08:24;29.00;24.00;15.00
80555;PMS5003;69889;55.040;73.076;2023-12-20T07:10:51;31.75;26.00;17.00
80555;PMS5003;69889;55.040;73.076;2023-12-20T07:13:17;28.00;24.00;15.00
80555;PMS5003;69889;55.040;73.076;2023-12-20T07:15:43;30.50;25.00;15.75
80555;PMS5003;69889;55.040;73.076;2023-12-20T07:18:09;32.00;26.00;16.00
80555;PMS5003;69889;55.040;73.076;2023-12-20T07:20:36;32.00;25.00;16.00
80555;PMS5003;69889;55.040;73.076;2023-12-20T07:23:02;26.75;23.00;15.00
80555;PMS5003;69889;55.040;73.076;2023-12-20T07:25:28;29.00;24.25;16.00
80555;PMS5003;69889;55.040;73.076;2023-12-20T07:27:56;29.25;24.25;16.00
80555;PMS5003;69889;55.040;73.076;2023-12-20T07:30:22;30.00;24.00;15.75
80555;PMS5003;69889;55.040;73.076;2023-12-20T07:32:48;29.75;25.00;16.00
80555;PMS5003;69889;55.040;73.076;2023-12-20T07:35:15;30.00;25.00;16.00
80555;PMS5003;69889;55.040;73.076;2023-12-20T07:37:42;32.50;26.50;16.75
80555;PMS5003;69889;55.040;73.076;2023-12-20T07:40:08;27.25;23.75;15.75
80555;PMS5003;69889;55.040;73.076;2023-12-20T07:42:35;29.00;24.00;15.75
80555;PMS5003;69889;55.040;73.076;2023-12-20T07:45:03;29.50;24.75;16.50
80555;PMS5003;69889;55.040;73.076;2023-12-20T07:47:40;27.50;24.25;16.00
80555;PMS5003;69889;55.040;73.076;2023-12-20T07:50:16;28.50;25.50;16.25
80555;PMS5003;69889;55.040;73.076;2023-12-20T07:52:42;31.50;25.00;17.00
80555;PMS5003;69889;55.040;73.076;2023-12-20T07:55:08;25.25;21.25;14.50
80555;PMS5003;69889;55.040;73.076;2023-12-20T07:57:35;29.00;24.50;14.50
80555;PMS5003;69889;55.040;73.076;2023-12-20T08:00:02;28.75;25.75;16.75
80555;PMS5003;69889;55.040;73.076;2023-12-20T08:02:30;26.75;24.00;16.00
80555;PMS5003;69889;55.040;73.076;2023-12-20T08:04:57;30.00;25.00;15.50
80555;PMS5003;69889;55.040;73.076;2023-12-20T08:07:23;28.00;23.75;15.50
80555;PMS5003;69889;55.040;73.076;2023-12-20T08:09:50;28.50;23.75;15.50
80555;PMS5003;69889;55.040;73.076;2023-12-20T08:12:17;29.00;24.00;16.00
80555;PMS5003;69889;55.040;73.076;2023-12-20T08:14:44;32.00;25.00;17.00
80555;PMS5003;69889;55.040;73.076;2023-12-20T08:17:10;27.25;24.00;16.00
80555;PMS5003;69889;55.040;73.076;2023-12-20T08:19:36;31.50;25.75;16.00
80555;PMS5003;69889;55.040;73.076;2023-12-20T08:22:02;29.00;24.00;15.25
80555;PMS5003;69889;55.040;73.076;2023-12-20T08:24:29;25.25;22.00;14.75
80555;PMS5003;69889;55.040;73.076;2023-12-20T08:26:56;30.75;25.75;16.00
80555;PMS5003;69889;55.040;73.076;2023-12-20T08:29:22;27.75;24.00;15.75
80555;PMS5003;69889;55.040;73.076;2023-12-20T08:31:52;27.00;23.25;15.00
80555;PMS5003;69889;55.040;73.076;2023-12-20T08:34:18;29.00;24.75;15.75
80555;PMS5003;69889;55.040;73.076;2023-12-20T08:36:45;28.00;24.75;15.75
80555;PMS5003;69889;55.040;73.076;2023-12-20T08:39:11;29.50;25.00;15.00
80555;PMS5003;69889;55.040;73.076;2023-12-20T08:41:37;29.00;24.75;14.50
80555;PMS5003;69889;55.040;73.076;2023-12-20T08:44:04;28.75;24.25;15.75
80555;PMS5003;69889;55.040;73.076;2023-12-20T08:46:30;32.00;26.00;16.00
80555;PMS5003;69889;55.040;73.076;2023-12-20T08:48:56;28.75;24.00;15.00
80555;PMS5003;69889;55.040;73.076;2023-12-20T08:51:23;27.25;23.00;16.00
80555;PMS5003;69889;55.040;73.076;2023-12-20T08:53:51;31.00;26.00;17.00
80555;PMS5003;69889;55.040;73.076;2023-12-20T08:56:17;28.00;23.00;15.25
80555;PMS5003;69889;55.040;73.076;2023-12-20T08:58:44;28.75;24.00;16.00
80555;PMS5003;69889;55.040;73.076;2023-12-20T09:01:10;29.00;23.75;15.25
80555;PMS5003;69889;55.040;73.076;2023-12-20T09:03:37;29.25;24.50;16.25
80555;PMS5003;69889;55.040;73.076;2023-12-20T09:06:03;29.25;25.50;15.75
80555;PMS5003;69889;55.040;73.076;2023-12-20T09:08:30;31.00;25.00;16.00
80555;PMS5003;69889;55.040;73.076;2023-12-20T09:10:56;28.50;23.00;15.50
80555;PMS5003;69889;55.040;73.076;2023-12-20T09:13:22;30.00;25.00;16.00
80555;PMS5003;69889;55.040;73.076;2023-12-20T09:15:54;31.75;26.00;17.00
80555;PMS5003;69889;55.040;73.076;2023-12-20T09:18:21;35.00;27.00;16.00
80555;PMS5003;69889;55.040;73.076;2023-12-20T09:20:47;32.75;27.25;19.00
80555;PMS5003;69889;55.040;73.076;2023-12-20T09:23:13;30.50;26.00;17.00
80555;PMS5003;69889;55.040;73.076;2023-12-20T09:25:40;36.00;28.00;18.00
80555;PMS5003;69889;55.040;73.076;2023-12-20T09:28:06;30.50;25.50;17.25
80555;PMS5003;69889;55.040;73.076;2023-12-20T09:30:32;29.75;25.25;17.00
80555;PMS5003;69889;55.040;73.076;2023-12-20T09:32:59;32.00;26.75;16.50
80555;PMS5003;69889;55.040;73.076;2023-12-20T09:35:25;30.75;25.00;15.75
80555;PMS5003;69889;55.040;73.076;2023-12-20T09:37:51;32.00;26.00;16.50
80555;PMS5003;69889;55.040;73.076;2023-12-20T09:40:19;26.75;23.25;15.00
80555;PMS5003;69889;55.040;73.076;2023-12-20T09:45:11;26.50;22.50;14.50
80555;PMS5003;69889;55.040;73.076;2023-12-20T09:47:39;30.50;25.75;16.75
80555;PMS5003;69889;55.040;73.076;2023-12-20T09:50:06;28.00;24.50;15.75
80555;PMS5003;69889;55.040;73.076;2023-12-20T09:52:32;28.50;23.50;15.25
80555;PMS5003;69889;55.040;73.076;2023-12-20T09:55:00;24.25;20.75;14.00
80555;PMS5003;69889;55.040;73.076;2023-12-20T09:57:28;27.25;23.75;15.00
80555;PMS5003;69889;55.040;73.076;2023-12-20T09:59:54;32.50;25.00;15.50
80555;PMS5003;69889;55.040;73.076;2023-12-20T10:02:20;31.00;25.00;14.25
80555;PMS5003;69889;55.040;73.076;2023-12-20T10:04:49;27.00;23.00;15.00
80555;PMS5003;69889;55.040;73.076;2023-12-20T10:07:16;32.00;23.75;14.75
80555;PMS5003;69889;55.040;73.076;2023-12-20T10:09:43;25.00;22.00;13.50
80555;PMS5003;69889;55.040;73.076;2023-12-20T10:12:10;25.75;22.00;15.00
80555;PMS5003;69889;55.040;73.076;2023-12-20T10:14:37;25.50;21.75;14.50
80555;PMS5003;69889;55.040;73.076;2023-12-20T10:17:04;25.00;21.00;13.00
80555;PMS5003;69889;55.040;73.076;2023-12-20T10:19:32;27.00;23.00;14.00
80555;PMS5003;69889;55.040;73.076;2023-12-20T10:22:03;24.50;19.50;13.75
80555;PMS5003;69889;55.040;73.076;2023-12-20T10:24:30;25.25;20.75;13.00
80555;PMS5003;69889;55.040;73.076;2023-12-20T10:27:03;26.00;21.00;14.00
80555;PMS5003;69889;55.040;73.076;2023-12-20T10:29:36;28.00;22.00;14.00
80555;PMS5003;69889;55.040;73.076;2023-12-20T10:32:22;26.50;22.00;13.75
80555;PMS5003;69889;55.040;73.076;2023-12-20T10:34:50;24.00;20.50;13.00
80555;PMS5003;69889;55.040;73.076;2023-12-20T10:37:16;23.50;20.25;12.75
80555;PMS5003;69889;55.040;73.076;2023-12-20T10:39:43;24.50;20.50;12.00
80555;PMS5003;69889;55.040;73.076;2023-12-20T10:42:11;28.25;23.00;15.00
80555;PMS5003;69889;55.040;73.076;2023-12-20T10:44:37;21.50;18.50;12.25
80555;PMS5003;69889;55.040;73.076;2023-12-20T10:47:04;25.00;22.00;14.00
80555;PMS5003;69889;55.040;73.076;2023-12-20T10:49:31;23.00;19.00;13.00
80555;PMS5003;69889;55.040;73.076;2023-12-20T10:51:57;21.75;18.50;11.75
80555;PMS5003;69889;55.040;73.076;2023-12-20T10:54:25;25.50;20.00;12.50
80555;PMS5003;69889;55.040;73.076;2023-12-20T10:56:52;21.50;18.50;12.00
80555;PMS5003;69889;55.040;73.076;2023-12-20T10:59:19;21.25;18.25;12.25
80555;PMS5003;69889;55.040;73.076;2023-12-20T11:01:46;22.00;18.50;12.00
80555;PMS5003;69889;55.040;73.076;2023-12-20T11:04:15;23.50;19.75;13.00
80555;PMS5003;69889;55.040;73.076;2023-12-20T11:09:13;23.00;20.00;12.00
80555;PMS5003;69889;55.040;73.076;2023-12-20T11:11:44;24.50;19.75;12.00
80555;PMS5003;69889;55.040;73.076;2023-12-20T11:14:23;23.00;21.00;14.00
80555;PMS5003;69889;55.040;73.076;2023-12-20T11:17:05;19.25;16.00;11.00
80555;PMS5003;69889;55.040;73.076;2023-12-20T11:19:31;22.25;18.50;13.25
80555;PMS5003;69889;55.040;73.076;2023-12-20T11:21:58;20.75;17.00;12.25
80555;PMS5003;69889;55.040;73.076;2023-12-20T11:24:24;20.25;18.00;12.00
80555;PMS5003;69889;55.040;73.076;2023-12-20T11:26:51;25.50;21.00;14.00
80555;PMS5003;69889;55.040;73.076;2023-12-20T11:29:31;25.00;20.00;12.50
80555;PMS5003;69889;55.040;73.076;2023-12-20T11:31:59;27.00;23.00;13.50
80555;PMS5003;69889;55.040;73.076;2023-12-20T11:34:31;25.00;22.00;14.00
80555;PMS5003;69889;55.040;73.076;2023-12-20T11:36:58;24.75;21.00;14.00
80555;PMS5003;69889;55.040;73.076;2023-12-20T11:39:25;22.50;19.50;12.25
80555;PMS5003;69889;55.040;73.076;2023-12-20T11:41:54;23.00;19.25;12.75
80555;PMS5003;69889;55.040;73.076;2023-12-20T11:44:20;25.50;21.00;12.25
80555;PMS5003;69889;55.040;73.076;2023-12-20T11:46:46;25.75;21.50;13.00
80555;PMS5003;69889;55.040;73.076;2023-12-20T11:49:13;24.50;20.50;13.00
80555;PMS5003;69889;55.040;73.076;2023-12-20T11:51:42;27.00;21.75;12.50
80555;PMS5003;69889;55.040;73.076;2023-12-20T11:54:10;27.00;21.00;13.00
80555;PMS5003;69889;55.040;73.076;2023-12-20T11:56:37;23.75;20.75;13.00
80555;PMS5003;69889;55.040;73.076;2023-12-20T11:59:03;23.00;20.00;13.00
80555;PMS5003;69889;55.040;73.076;2023-12-20T12:01:31;25.25;21.00;13.75
80555;PMS5003;69889;55.040;73.076;2023-12-20T12:04:05;24.00;20.00;13.00
80555;PMS5003;69889;55.040;73.076;2023-12-20T12:06:31;24.50;20.25;12.25
80555;PMS5003;69889;55.040;73.076;2023-12-20T12:08:58;22.50;20.25;13.00
80555;PMS5003;69889;55.040;73.076;2023-12-20T12:11:24;26.00;22.00;14.00
80555;PMS5003;69889;55.040;73.076;2023-12-20T12:13:50;26.25;22.50;14.00
80555;PMS5003;69889;55.040;73.076;2023-12-20T12:16:17;22.50;20.25;13.00
80555;PMS5003;69889;55.040;73.076;2023-12-20T12:19:00;24.00;20.00;13.00
80555;PMS5003;69889;55.040;73.076;2023-12-20T12:21:27;21.00;18.25;13.00
80555;PMS5003;69889;55.040;73.076;2023-12-20T12:23:53;25.00;20.50;11.50
80555;PMS5003;69889;55.040;73.076;2023-12-20T12:26:20;25.00;21.00;13.00
80555;PMS5003;69889;55.040;73.076;2023-12-20T12:28:46;22.50;19.75;13.25
80555;PMS5003;69889;55.040;73.076;2023-12-20T12:31:13;21.25;19.00;13.00
80555;PMS5003;69889;55.040;73.076;2023-12-20T12:33:43;24.00;19.50;12.50
80555;PMS5003;69889;55.040;73.076;2023-12-20T12:36:10;24.00;20.00;12.75
80555;PMS5003;69889;55.040;73.076;2023-12-20T12:38:45;24.00;20.75;14.00
80555;PMS5003;69889;55.040;73.076;2023-12-20T12:41:15;29.25;25.00;13.75
80555;PMS5003;69889;55.040;73.076;2023-12-20T12:43:42;26.00;21.00;13.00
80555;PMS5003;69889;55.040;73.076;2023-12-20T12:46:22;27.75;22.25;14.50
80555;PMS5003;69889;55.040;73.076;2023-12-20T12:48:49;27.00;23.00;15.00
80555;PMS5003;69889;55.040;73.076;2023-12-20T12:51:16;28.50;23.50;14.50
80555;PMS5003;69889;55.040;73.076;2023-12-20T12:53:42;26.50;22.00;14.25
80555;PMS5003;69889;55.040;73.076;2023-12-20T12:56:19;23.25;20.50;13.25
80555;PMS5003;69889;55.040;73.076;2023-12-20T12:58:45;25.50;20.75;12.25
80555;PMS5003;69889;55.040;73.076;2023-12-20T13:01:11;25.00;20.25;12.75
80555;PMS5003;69889;55.040;73.076;2023-12-20T13:03:38;23.00;19.25;12.25
80555;PMS5003;69889;55.040;73.076;2023-12-20T13:06:04;27.00;22.50;13.00
80555;PMS5003;69889;55.040;73.076;2023-12-20T13:08:31;24.75;21.00;14.00
80555;PMS5003;69889;55.040;73.076;2023-12-20T13:10:58;26.25;22.75;14.00
80555;PMS5003;69889;55.040;73.076;2023-12-20T13:13:26;32.00;25.75;16.00
80555;PMS5003;69889;55.040;73.076;2023-12-20T13:15:53;26.25;21.75;13.75
80555;PMS5003;69889;55.040;73.076;2023-12-20T13:18:21;25.25;22.00;13.50
80555;PMS5003;69889;55.040;73.076;2023-12-20T13:21:08;29.50;24.00;13.25
80555;PMS5003;69889;55.040;73.076;2023-12-20T13:23:34;26.00;21.50;13.25
80555;PMS5003;69889;55.040;73.076;2023-12-20T13:26:01;26.00;21.75;14.00
80555;PMS5003;69889;55.040;73.076;2023-12-20T13:28:27;26.50;22.25;14.25
80555;PMS5003;69889;55.040;73.076;2023-12-20T13:31:14;27.75;22.75;14.25
80555;PMS5003;69889;55.040;73.076;2023-12-20T13:33:40;28.00;22.75;15.00
80555;PMS5003;69889;55.040;73.076;2023-12-20T13:36:06;25.75;22.00;13.75
80555;PMS5003;69889;55.040;73.076;2023-12-20T13:38:47;24.00;20.75;13.75